Weather at Women And Children'S Hospital Heliport [CLOSED]

Public forecast

Using degrees Fahrenheit for public forecast. Weather courtesy of forecast.io.

Closest aviation weather report (METAR) to Women And Children'S Hospital Heliport

Closest report is Buffalo Niagara International Airport, 6.5 nm (12.1 km) ENE.

2024/05/26 08:33 (retrieved 25 minutes ago)

KBUF 260833Z 00000KT 1/4SM R23/1200V1600FT FG VV002 14/14 A2992 RMK AO2 T01440139

Closest aviation forecast (TAF) to Women And Children'S Hospital Heliport

Closest forecast is Buffalo Niagara International Airport, 6.5 nm (12.1 km) ENE.

2024/05/26 07:03 Ammendment (retrieved 2 hours ago)

TAF AMD KBUF 260701Z 2607/2706 00000KT 1/4SM FG VV003 FM261000 00000KT 1SM BR OVC004 FM261400 00000KT P6SM BKN025 FM261500 VRB03KT P6SM SCT250 FM261800 07005KT P6SM SKC FM270300 10010KT P6SM BKN100